Terminal Aerodrome Forecast
Issued by NWS

Home | Current Version | Previous Version | Text Only | Print | Product List | Glossary On
Versions: 1 2 3 4 5 6 7 8 9 10 11 12 13 14 15 16 17 18
767
FTUS43 KPAH 121134
TAFCGI
TAF
KCGI 121134Z 1212/1312 03003KT P6SM OVC060
     FM121500 34006KT P6SM BKN045
     FM122000 35012G19KT P6SM BKN015
     FM130100 35011KT P6SM FEW015 SCT250=

USA.gov is the U.S. government's official web portal to all federal, state and local government web resources and services.